sensor_id;sensor_type;location;lat;lon;timestamp;pressure;altitude;pressure_sealevel;temperature;humidity
82474;BME280;72350;53.232;6.556;2023-10-13T00:01:06;100877.44;;;14.18;100.00
82474;BME280;72350;53.232;6.556;2023-10-13T00:03:38;100885.09;;;14.16;100.00
82474;BME280;72350;53.232;6.556;2023-10-13T00:06:07;100879.63;;;14.23;100.00
82474;BME280;72350;53.232;6.556;2023-10-13T00:08:35;100874.50;;;14.26;100.00
82474;BME280;72350;53.232;6.556;2023-10-13T00:11:05;100868.31;;;14.24;100.00
82474;BME280;72350;53.232;6.556;2023-10-13T00:13:37;100866.19;;;14.26;100.00
82474;BME280;72350;53.232;6.556;2023-10-13T00:16:10;100862.63;;;14.32;100.00
82474;BME280;72350;53.232;6.556;2023-10-13T00:18:44;100860.94;;;14.38;100.00
82474;BME280;72350;53.232;6.556;2023-10-13T00:21:12;100853.91;;;14.35;100.00
82474;BME280;72350;53.232;6.556;2023-10-13T00:23:40;100855.81;;;14.35;100.00
82474;BME280;72350;53.232;6.556;2023-10-13T00:26:20;100845.59;;;14.42;100.00
82474;BME280;72350;53.232;6.556;2023-10-13T00:28:54;100839.44;;;14.47;100.00
82474;BME280;72350;53.232;6.556;2023-10-13T00:31:36;100839.44;;;14.47;100.00
82474;BME280;72350;53.232;6.556;2023-10-13T00:34:10;100834.13;;;14.52;100.00
82474;BME280;72350;53.232;6.556;2023-10-13T00:36:42;100836.91;;;14.52;100.00
82474;BME280;72350;53.232;6.556;2023-10-13T00:39:15;100844.56;;;14.50;100.00
82474;BME280;72350;53.232;6.556;2023-10-13T00:41:44;100838.66;;;14.53;100.00
82474;BME280;72350;53.232;6.556;2023-10-13T00:44:20;100845.22;;;14.52;100.00
82474;BME280;72350;53.232;6.556;2023-10-13T00:46:55;100845.72;;;14.62;100.00
82474;BME280;72350;53.232;6.556;2023-10-13T00:49:24;100835.47;;;14.62;100.00
82474;BME280;72350;53.232;6.556;2023-10-13T00:51:52;100831.00;;;14.61;100.00
82474;BME280;72350;53.232;6.556;2023-10-13T00:54:19;100835.47;;;14.56;100.00
82474;BME280;72350;53.232;6.556;2023-10-13T00:56:55;100825.88;;;14.65;100.00
82474;BME280;72350;53.232;6.556;2023-10-13T00:59:33;100823.97;;;14.66;100.00
82474;BME280;72350;53.232;6.556;2023-10-13T01:02:09;100819.91;;;14.68;100.00
82474;BME280;72350;53.232;6.556;2023-10-13T01:04:51;100817.56;;;14.65;100.00
82474;BME280;72350;53.232;6.556;2023-10-13T01:07:21;100814.38;;;14.68;100.00
82474;BME280;72350;53.232;6.556;2023-10-13T01:09:51;100812.47;;;14.69;100.00
82474;BME280;72350;53.232;6.556;2023-10-13T01:12:18;100803.31;;;14.75;100.00
82474;BME280;72350;53.232;6.556;2023-10-13T01:14:47;100808.25;;;14.79;100.00
82474;BME280;72350;53.232;6.556;2023-10-13T01:17:15;100806.97;;;14.82;100.00
82474;BME280;72350;53.232;6.556;2023-10-13T01:19:44;100806.75;;;14.83;100.00
82474;BME280;72350;53.232;6.556;2023-10-13T01:22:12;100802.69;;;14.86;100.00
82474;BME280;72350;53.232;6.556;2023-10-13T01:24:41;100794.19;;;14.88;100.00
82474;BME280;72350;53.232;6.556;2023-10-13T01:27:08;100789.03;;;14.91;100.00
82474;BME280;72350;53.232;6.556;2023-10-13T01:29:44;100786.28;;;14.91;100.00
82474;BME280;72350;53.232;6.556;2023-10-13T01:32:15;100775.41;;;14.96;100.00
82474;BME280;72350;53.232;6.556;2023-10-13T01:34:43;100778.41;;;14.95;100.00
82474;BME280;72350;53.232;6.556;2023-10-13T01:37:13;100781.81;;;14.97;100.00
82474;BME280;72350;53.232;6.556;2023-10-13T01:39:44;100769.41;;;14.99;100.00
82474;BME280;72350;53.232;6.556;2023-10-13T01:42:14;100765.38;;;15.02;100.00
82474;BME280;72350;53.232;6.556;2023-10-13T01:44:46;100760.69;;;15.02;100.00
82474;BME280;72350;53.232;6.556;2023-10-13T01:47:13;100762.41;;;15.03;100.00
82474;BME280;72350;53.232;6.556;2023-10-13T01:49:43;100760.06;;;15.14;100.00
82474;BME280;72350;53.232;6.556;2023-10-13T01:52:14;100749.16;;;15.12;100.00
82474;BME280;72350;53.232;6.556;2023-10-13T01:54:46;100748.13;;;15.13;100.00
82474;BME280;72350;53.232;6.556;2023-10-13T01:57:15;100737.44;;;15.17;100.00
82474;BME280;72350;53.232;6.556;2023-10-13T01:59:47;100725.28;;;15.18;100.00
82474;BME280;72350;53.232;6.556;2023-10-13T02:02:15;100718.00;;;15.17;100.00
82474;BME280;72350;53.232;6.556;2023-10-13T02:04:47;100708.19;;;15.14;100.00
82474;BME280;72350;53.232;6.556;2023-10-13T02:07:16;100706.28;;;15.21;100.00
82474;BME280;72350;53.232;6.556;2023-10-13T02:09:45;100706.28;;;15.21;100.00
82474;BME280;72350;53.232;6.556;2023-10-13T02:12:12;100710.13;;;15.20;100.00
82474;BME280;72350;53.232;6.556;2023-10-13T02:14:42;100714.59;;;15.28;100.00
82474;BME280;72350;53.232;6.556;2023-10-13T02:17:09;100710.75;;;15.29;100.00
82474;BME280;72350;53.232;6.556;2023-10-13T02:19:40;100711.38;;;15.24;100.00
82474;BME280;72350;53.232;6.556;2023-10-13T02:22:12;100712.88;;;15.34;100.00
82474;BME280;72350;53.232;6.556;2023-10-13T02:24:52;100710.53;;;15.31;100.00
82474;BME280;72350;53.232;6.556;2023-10-13T02:27:19;100699.66;;;15.29;100.00
82474;BME280;72350;53.232;6.556;2023-10-13T02:29:50;100701.13;;;15.32;100.00
82474;BME280;72350;53.232;6.556;2023-10-13T02:32:17;100685.13;;;15.27;100.00
82474;BME280;72350;53.232;6.556;2023-10-13T02:34:46;100691.75;;;15.26;100.00
82474;BME280;72350;53.232;6.556;2023-10-13T02:37:13;100684.69;;;15.30;100.00
82474;BME280;72350;53.232;6.556;2023-10-13T02:39:42;100677.44;;;15.29;100.00
82474;BME280;72350;53.232;6.556;2023-10-13T02:42:11;100672.09;;;15.27;100.00
82474;BME280;72350;53.232;6.556;2023-10-13T02:44:49;100671.88;;;15.36;100.00
82474;BME280;72350;53.232;6.556;2023-10-13T02:47:17;100660.56;;;15.37;100.00
82474;BME280;72350;53.232;6.556;2023-10-13T02:49:46;100666.97;;;15.38;100.00
82474;BME280;72350;53.232;6.556;2023-10-13T02:52:14;100656.06;;;15.43;100.00
82474;BME280;72350;53.232;6.556;2023-10-13T02:54:42;100653.53;;;15.35;100.00
82474;BME280;72350;53.232;6.556;2023-10-13T02:57:15;100658.44;;;15.39;100.00
82474;BME280;72350;53.232;6.556;2023-10-13T02:59:43;100658.88;;;15.36;100.00
82474;BME280;72350;53.232;6.556;2023-10-13T03:02:14;100651.59;;;15.35;100.00
82474;BME280;72350;53.232;6.556;2023-10-13T03:04:46;100649.44;;;15.44;100.00
82474;BME280;72350;53.232;6.556;2023-10-13T03:07:15;100644.31;;;15.41;100.00
82474;BME280;72350;53.232;6.556;2023-10-13T03:09:50;100642.81;;;15.38;100.00
82474;BME280;72350;53.232;6.556;2023-10-13T03:12:19;100642.41;;;15.41;100.00
82474;BME280;72350;53.232;6.556;2023-10-13T03:14:48;100639.19;;;15.44;100.00
82474;BME280;72350;53.232;6.556;2023-10-13T03:17:16;100639.59;;;15.48;100.00
82474;BME280;72350;53.232;6.556;2023-10-13T03:19:46;100622.09;;;15.47;100.00
82474;BME280;72350;53.232;6.556;2023-10-13T03:22:18;100620.41;;;15.46;100.00
82474;BME280;72350;53.232;6.556;2023-10-13T03:24:57;100618.03;;;15.50;100.00
82474;BME280;72350;53.232;6.556;2023-10-13T03:27:33;100613.78;;;15.47;100.00
82474;BME280;72350;53.232;6.556;2023-10-13T03:30:08;100609.69;;;15.57;100.00
82474;BME280;72350;53.232;6.556;2023-10-13T03:32:42;100606.72;;;15.51;100.00
82474;BME280;72350;53.232;6.556;2023-10-13T03:35:13;100594.75;;;15.51;100.00
82474;BME280;72350;53.232;6.556;2023-10-13T03:37:50;100592.41;;;15.55;100.00
82474;BME280;72350;53.232;6.556;2023-10-13T03:40:18;100588.34;;;15.57;100.00
82474;BME280;72350;53.232;6.556;2023-10-13T03:43:12;100580.84;;;15.58;100.00
82474;BME280;72350;53.232;6.556;2023-10-13T03:45:41;100575.09;;;15.52;100.00
82474;BME280;72350;53.232;6.556;2023-10-13T03:48:11;100568.25;;;15.55;100.00
82474;BME280;72350;53.232;6.556;2023-10-13T03:50:56;100557.81;;;15.50;100.00
82474;BME280;72350;53.232;6.556;2023-10-13T03:53:34;100556.31;;;15.48;100.00
82474;BME280;72350;53.232;6.556;2023-10-13T03:56:04;100552.25;;;15.50;100.00
82474;BME280;72350;53.232;6.556;2023-10-13T03:58:41;100552.25;;;15.50;100.00
82474;BME280;72350;53.232;6.556;2023-10-13T04:01:13;100534.50;;;15.58;100.00
82474;BME280;72350;53.232;6.556;2023-10-13T04:03:44;100527.53;;;15.49;100.00
82474;BME280;72350;53.232;6.556;2023-10-13T04:06:30;100514.47;;;15.49;100.00
82474;BME280;72350;53.232;6.556;2023-10-13T04:09:40;100520.91;;;15.43;100.00
82474;BME280;72350;53.232;6.556;2023-10-13T04:12:25;100505.97;;;15.44;100.00
82474;BME280;72350;53.232;6.556;2023-10-13T04:15:12;100499.53;;;15.50;100.00
82474;BME280;72350;53.232;6.556;2023-10-13T04:17:44;100489.97;;;15.46;100.00
82474;BME280;72350;53.232;6.556;2023-10-13T04:20:13;100489.97;;;15.46;100.00
82474;BME280;72350;53.232;6.556;2023-10-13T04:22:53;100489.50;;;15.49;100.00
82474;BME280;72350;53.232;6.556;2023-10-13T04:25:46;100472.84;;;15.49;100.00
82474;BME280;72350;53.232;6.556;2023-10-13T04:28:32;100461.56;;;15.44;100.00
82474;BME280;72350;53.232;6.556;2023-10-13T04:31:05;100460.47;;;15.45;100.00
82474;BME280;72350;53.232;6.556;2023-10-13T04:33:39;100449.81;;;15.49;100.00
82474;BME280;72350;53.232;6.556;2023-10-13T04:36:18;100442.06;;;15.51;100.00
82474;BME280;72350;53.232;6.556;2023-10-13T04:39:03;100431.44;;;15.48;100.00
82474;BME280;72350;53.232;6.556;2023-10-13T04:41:37;100421.16;;;15.48;100.00
82474;BME280;72350;53.232;6.556;2023-10-13T04:44:11;100422.22;;;15.54;100.00
82474;BME280;72350;53.232;6.556;2023-10-13T04:47:07;100418.75;;;15.59;100.00
82474;BME280;72350;53.232;6.556;2023-10-13T04:49:45;100412.41;;;15.51;100.00
82474;BME280;72350;53.232;6.556;2023-10-13T04:52:27;100404.50;;;15.48;100.00
82474;BME280;72350;53.232;6.556;2023-10-13T04:55:27;100409.84;;;15.50;100.00
82474;BME280;72350;53.232;6.556;2023-10-13T04:58:26;100409.81;;;15.57;100.00
82474;BME280;72350;53.232;6.556;2023-10-13T05:01:23;100391.28;;;15.50;100.00
82474;BME280;72350;53.232;6.556;2023-10-13T05:04:28;100386.81;;;15.49;100.00
82474;BME280;72350;53.232;6.556;2023-10-13T05:07:05;100371.84;;;15.50;100.00
82474;BME280;72350;53.232;6.556;2023-10-13T05:09:51;100369.06;;;15.50;100.00
82474;BME280;72350;53.232;6.556;2023-10-13T05:12:36;100378.03;;;15.52;100.00
82474;BME280;72350;53.232;6.556;2023-10-13T05:15:21;100374.41;;;15.52;100.00
82474;BME280;72350;53.232;6.556;2023-10-13T05:18:07;100347.03;;;15.56;100.00
82474;BME280;72350;53.232;6.556;2023-10-13T05:20:56;100356.91;;;15.51;100.00
82474;BME280;72350;53.232;6.556;2023-10-13T05:23:41;100357.13;;;15.50;100.00
82474;BME280;72350;53.232;6.556;2023-10-13T05:26:27;100341.38;;;15.44;100.00
82474;BME280;72350;53.232;6.556;2023-10-13T05:29:13;100335.13;;;15.48;100.00
82474;BME280;72350;53.232;6.556;2023-10-13T05:31:59;100330.28;;;15.44;100.00
82474;BME280;72350;53.232;6.556;2023-10-13T05:34:45;100317.47;;;15.43;100.00
82474;BME280;72350;53.232;6.556;2023-10-13T05:37:31;100300.59;;;15.44;100.00
82474;BME280;72350;53.232;6.556;2023-10-13T05:40:17;100299.34;;;15.40;100.00
82474;BME280;72350;53.232;6.556;2023-10-13T05:43:02;100299.50;;;15.45;100.00
82474;BME280;72350;53.232;6.556;2023-10-13T05:45:48;100300.81;;;15.43;100.00
82474;BME280;72350;53.232;6.556;2023-10-13T05:48:36;100295.50;;;15.41;100.00
82474;BME280;72350;53.232;6.556;2023-10-13T05:51:30;100308.50;;;15.41;100.00
82474;BME280;72350;53.232;6.556;2023-10-13T05:54:12;100303.66;;;15.36;100.00
82474;BME280;72350;53.232;6.556;2023-10-13T05:57:10;100280.56;;;15.36;100.00
82474;BME280;72350;53.232;6.556;2023-10-13T05:59:55;100272.25;;;15.36;100.00
82474;BME280;72350;53.232;6.556;2023-10-13T06:02:41;100280.44;;;15.31;100.00
82474;BME280;72350;53.232;6.556;2023-10-13T06:05:26;100271.06;;;15.25;100.00
82474;BME280;72350;53.232;6.556;2023-10-13T06:08:11;100274.00;;;15.30;100.00
82474;BME280;72350;53.232;6.556;2023-10-13T06:11:03;100265.09;;;15.28;100.00
82474;BME280;72350;53.232;6.556;2023-10-13T06:13:48;100266.31;;;15.32;100.00
82474;BME280;72350;53.232;6.556;2023-10-13T06:16:34;100259.75;;;15.26;100.00
82474;BME280;72350;53.232;6.556;2023-10-13T06:19:19;100255.56;;;15.17;100.00
82474;BME280;72350;53.232;6.556;2023-10-13T06:22:04;100252.75;;;15.24;100.00
82474;BME280;72350;53.232;6.556;2023-10-13T06:24:50;100252.56;;;15.19;100.00
82474;BME280;72350;53.232;6.556;2023-10-13T06:27:38;100246.56;;;15.22;100.00
82474;BME280;72350;53.232;6.556;2023-10-13T06:30:24;100250.19;;;15.22;100.00
82474;BME280;72350;53.232;6.556;2023-10-13T06:32:52;100237.59;;;15.20;100.00
82474;BME280;72350;53.232;6.556;2023-10-13T06:35:20;100243.78;;;15.22;100.00
82474;BME280;72350;53.232;6.556;2023-10-13T06:37:50;100238.03;;;15.23;100.00
82474;BME280;72350;53.232;6.556;2023-10-13T06:40:19;100229.69;;;15.23;100.00
82474;BME280;72350;53.232;6.556;2023-10-13T06:42:54;100226.09;;;15.23;100.00
82474;BME280;72350;53.232;6.556;2023-10-13T06:45:39;100233.53;;;15.22;100.00
82474;BME280;72350;53.232;6.556;2023-10-13T06:48:07;100230.72;;;15.29;100.00
82474;BME280;72350;53.232;6.556;2023-10-13T06:50:38;100227.84;;;15.36;100.00
82474;BME280;72350;53.232;6.556;2023-10-13T06:53:08;100228.28;;;15.39;100.00
82474;BME280;72350;53.232;6.556;2023-10-13T06:55:39;100227.44;;;15.39;100.00
82474;BME280;72350;53.232;6.556;2023-10-13T06:58:08;100213.97;;;15.36;100.00
82474;BME280;72350;53.232;6.556;2023-10-13T07:00:40;100219.66;;;15.47;100.00
82474;BME280;72350;53.232;6.556;2023-10-13T07:03:19;100228.34;;;15.51;100.00
82474;BME280;72350;53.232;6.556;2023-10-13T07:05:48;100224.69;;;15.57;100.00
82474;BME280;72350;53.232;6.556;2023-10-13T07:08:16;100230.22;;;15.57;100.00
82474;BME280;72350;53.232;6.556;2023-10-13T07:10:50;100232.84;;;15.52;100.00
82474;BME280;72350;53.232;6.556;2023-10-13T07:13:30;100222.91;;;15.63;100.00
82474;BME280;72350;53.232;6.556;2023-10-13T07:16:00;100217.50;;;15.68;100.00
82474;BME280;72350;53.232;6.556;2023-10-13T07:18:41;100213.47;;;15.64;100.00
82474;BME280;72350;53.232;6.556;2023-10-13T07:21:16;100215.66;;;15.62;100.00
82474;BME280;72350;53.232;6.556;2023-10-13T07:23:51;100226.53;;;15.63;100.00
82474;BME280;72350;53.232;6.556;2023-10-13T07:26:35;100215.81;;;15.67;100.00
82474;BME280;72350;53.232;6.556;2023-10-13T07:29:11;100204.72;;;15.67;100.00
82474;BME280;72350;53.232;6.556;2023-10-13T07:31:39;100220.28;;;15.68;100.00
82474;BME280;72350;53.232;6.556;2023-10-13T07:34:12;100207.72;;;15.65;100.00
82474;BME280;72350;53.232;6.556;2023-10-13T07:36:55;100214.56;;;15.63;100.00
82474;BME280;72350;53.232;6.556;2023-10-13T07:39:28;100206.41;;;15.68;100.00
82474;BME280;72350;53.232;6.556;2023-10-13T07:42:01;100206.75;;;15.78;100.00
82474;BME280;72350;53.232;6.556;2023-10-13T07:44:34;100209.59;;;15.71;100.00
82474;BME280;72350;53.232;6.556;2023-10-13T07:47:13;100206.63;;;15.66;100.00
82474;BME280;72350;53.232;6.556;2023-10-13T07:49:44;100199.34;;;15.72;100.00
82474;BME280;72350;53.232;6.556;2023-10-13T07:52:15;100200.22;;;15.66;100.00
82474;BME280;72350;53.232;6.556;2023-10-13T07:54:55;100186.19;;;15.61;100.00
82474;BME280;72350;53.232;6.556;2023-10-13T07:57:39;100185.97;;;15.62;100.00
82474;BME280;72350;53.232;6.556;2023-10-13T08:00:23;100173.41;;;15.60;100.00
82474;BME280;72350;53.232;6.556;2023-10-13T08:03:05;100166.38;;;15.57;100.00
82474;BME280;72350;53.232;6.556;2023-10-13T08:05:53;100163.81;;;15.56;100.00
82474;BME280;72350;53.232;6.556;2023-10-13T08:08:31;100150.09;;;15.61;100.00
82474;BME280;72350;53.232;6.556;2023-10-13T08:11:04;100150.72;;;15.63;100.00
82474;BME280;72350;53.232;6.556;2023-10-13T08:13:38;100140.47;;;15.63;100.00
82474;BME280;72350;53.232;6.556;2023-10-13T08:16:30;100137.94;;;15.62;100.00
82474;BME280;72350;53.232;6.556;2023-10-13T08:19:13;100117.41;;;15.63;100.00
82474;BME280;72350;53.232;6.556;2023-10-13T08:21:43;100111.50;;;15.59;100.00
82474;BME280;72350;53.232;6.556;2023-10-13T08:24:16;100100.72;;;15.69;100.00
82474;BME280;72350;53.232;6.556;2023-10-13T08:26:51;100098.13;;;15.68;100.00
82474;BME280;72350;53.232;6.556;2023-10-13T08:29:42;100081.88;;;15.71;100.00
82474;BME280;72350;53.232;6.556;2023-10-13T08:32:34;100080.56;;;15.74;100.00
82474;BME280;72350;53.232;6.556;2023-10-13T08:35:21;100076.72;;;15.75;100.00
82474;BME280;72350;53.232;6.556;2023-10-13T08:38:21;100075.25;;;15.72;100.00
82474;BME280;72350;53.232;6.556;2023-10-13T08:40:59;100080.09;;;15.77;100.00
82474;BME280;72350;53.232;6.556;2023-10-13T08:43:44;100078.06;;;15.84;100.00
82474;BME280;72350;53.232;6.556;2023-10-13T08:46:19;100066.50;;;15.87;100.00
82474;BME280;72350;53.232;6.556;2023-10-13T08:48:57;100064.19;;;15.84;100.00
82474;BME280;72350;53.232;6.556;2023-10-13T08:51:41;100053.84;;;15.91;100.00
82474;BME280;72350;53.232;6.556;2023-10-13T08:54:13;100058.69;;;15.96;100.00
82474;BME280;72350;53.232;6.556;2023-10-13T08:57:02;100045.88;;;15.95;100.00
82474;BME280;72350;53.232;6.556;2023-10-13T08:59:59;100038.28;;;16.02;100.00
82474;BME280;72350;53.232;6.556;2023-10-13T09:02:41;100029.03;;;16.08;100.00
82474;BME280;72350;53.232;6.556;2023-10-13T09:05:49;100007.25;;;16.05;100.00
82474;BME280;72350;53.232;6.556;2023-10-13T09:08:28;100029.25;;;16.07;100.00
82474;BME280;72350;53.232;6.556;2023-10-13T09:11:03;100009.81;;;16.07;100.00
82474;BME280;72350;53.232;6.556;2023-10-13T09:13:38;99979.88;;;16.09;100.00
82474;BME280;72350;53.232;6.556;2023-10-13T09:16:11;100018.16;;;16.19;100.00
82474;BME280;72350;53.232;6.556;2023-10-13T09:18:44;99996.66;;;16.26;100.00
82474;BME280;72350;53.232;6.556;2023-10-13T09:21:16;99994.63;;;16.33;100.00
82474;BME280;72350;53.232;6.556;2023-10-13T09:24:01;100001.75;;;16.41;100.00
82474;BME280;72350;53.232;6.556;2023-10-13T09:26:43;100010.97;;;16.53;100.00
82474;BME280;72350;53.232;6.556;2023-10-13T09:29:18;99992.59;;;16.64;100.00
82474;BME280;72350;53.232;6.556;2023-10-13T09:31:46;99983.03;;;16.71;100.00
82474;BME280;72350;53.232;6.556;2023-10-13T09:34:19;99982.09;;;16.77;100.00
82474;BME280;72350;53.232;6.556;2023-10-13T09:36:49;99969.75;;;16.85;100.00
82474;BME280;72350;53.232;6.556;2023-10-13T09:39:24;99969.38;;;16.93;100.00
82474;BME280;72350;53.232;6.556;2023-10-13T09:42:04;99955.81;;;16.97;100.00
82474;BME280;72350;53.232;6.556;2023-10-13T09:44:37;99952.16;;;17.08;100.00
82474;BME280;72350;53.232;6.556;2023-10-13T09:47:10;99967.84;;;17.14;100.00
82474;BME280;72350;53.232;6.556;2023-10-13T09:49:44;99957.59;;;17.15;100.00
82474;BME280;72350;53.232;6.556;2023-10-13T09:52:16;99952.50;;;17.12;100.00
82474;BME280;72350;53.232;6.556;2023-10-13T09:54:53;99947.31;;;17.15;100.00
82474;BME280;72350;53.232;6.556;2023-10-13T09:57:34;99949.81;;;17.29;100.00
82474;BME280;72350;53.232;6.556;2023-10-13T10:00:09;99947.22;;;17.39;100.00
82474;BME280;72350;53.232;6.556;2023-10-13T10:03:00;99942.94;;;17.48;100.00
82474;BME280;72350;53.232;6.556;2023-10-13T10:05:42;99957.66;;;17.60;100.00
82474;BME280;72350;53.232;6.556;2023-10-13T10:08:24;99942.88;;;17.60;100.00
82474;BME280;72350;53.232;6.556;2023-10-13T10:14:07;99937.03;;;17.61;100.00
82474;BME280;72350;53.232;6.556;2023-10-13T10:16:50;99953.94;;;17.72;100.00
82474;BME280;72350;53.232;6.556;2023-10-13T10:19:21;99941.13;;;17.71;100.00
82474;BME280;72350;53.232;6.556;2023-10-13T10:21:49;99930.50;;;17.67;100.00
82474;BME280;72350;53.232;6.556;2023-10-13T10:24:21;99937.00;;;17.73;100.00
82474;BME280;72350;53.232;6.556;2023-10-13T10:26:56;99927.72;;;17.67;100.00
82474;BME280;72350;53.232;6.556;2023-10-13T10:29:24;99926.00;;;17.66;100.00
82474;BME280;72350;53.232;6.556;2023-10-13T10:31:52;99898.84;;;17.74;100.00
82474;BME280;72350;53.232;6.556;2023-10-13T10:34:20;99909.03;;;17.80;100.00
82474;BME280;72350;53.232;6.556;2023-10-13T10:36:59;99905.31;;;17.91;100.00
82474;BME280;72350;53.232;6.556;2023-10-13T10:39:35;99888.91;;;17.95;100.00
82474;BME280;72350;53.232;6.556;2023-10-13T10:42:12;99888.75;;;18.01;100.00
82474;BME280;72350;53.232;6.556;2023-10-13T10:44:44;99881.00;;;18.03;100.00
82474;BME280;72350;53.232;6.556;2023-10-13T10:47:15;99887.06;;;18.17;100.00
82474;BME280;72350;53.232;6.556;2023-10-13T10:49:47;99890.84;;;18.28;100.00
82474;BME280;72350;53.232;6.556;2023-10-13T10:52:17;99888.56;;;18.25;100.00
82474;BME280;72350;53.232;6.556;2023-10-13T10:55:00;99871.53;;;18.21;100.00
82474;BME280;72350;53.232;6.556;2023-10-13T10:57:28;99859.66;;;18.31;100.00
82474;BME280;72350;53.232;6.556;2023-10-13T11:00:04;99849.03;;;18.28;100.00
82474;BME280;72350;53.232;6.556;2023-10-13T11:02:41;99853.59;;;18.34;100.00
82474;BME280;72350;53.232;6.556;2023-10-13T11:05:09;99861.66;;;18.52;100.00
82474;BME280;72350;53.232;6.556;2023-10-13T11:07:45;99867.44;;;18.68;99.81
82474;BME280;72350;53.232;6.556;2023-10-13T11:10:18;99854.06;;;18.70;98.60
82474;BME280;72350;53.232;6.556;2023-10-13T11:12:55;99852.19;;;18.75;97.96
82474;BME280;72350;53.232;6.556;2023-10-13T11:15:23;99852.84;;;18.83;97.75
82474;BME280;72350;53.232;6.556;2023-10-13T11:18:00;99836.88;;;18.78;97.72
82474;BME280;72350;53.232;6.556;2023-10-13T11:20:33;99831.84;;;18.75;97.00
82474;BME280;72350;53.232;6.556;2023-10-13T11:23:13;99838.75;;;18.72;97.25
82474;BME280;72350;53.232;6.556;2023-10-13T11:25:43;99815.28;;;18.68;97.11
82474;BME280;72350;53.232;6.556;2023-10-13T11:28:12;99839.34;;;18.74;97.03
82474;BME280;72350;53.232;6.556;2023-10-13T11:30:47;99839.19;;;18.64;96.75
82474;BME280;72350;53.232;6.556;2023-10-13T11:33:18;99847.69;;;18.74;96.21
82474;BME280;72350;53.232;6.556;2023-10-13T11:35:50;99823.00;;;18.83;96.18
82474;BME280;72350;53.232;6.556;2023-10-13T11:38:25;99854.28;;;18.85;95.46
82474;BME280;72350;53.232;6.556;2023-10-13T11:40:56;99842.34;;;18.90;94.93
82474;BME280;72350;53.232;6.556;2023-10-13T11:43:43;99841.28;;;18.74;95.12
82474;BME280;72350;53.232;6.556;2023-10-13T11:46:39;99823.97;;;18.72;94.68
82474;BME280;72350;53.232;6.556;2023-10-13T11:49:25;99822.09;;;18.55;95.73
82474;BME280;72350;53.232;6.556;2023-10-13T11:52:04;99797.88;;;18.39;96.43
82474;BME280;72350;53.232;6.556;2023-10-13T11:54:44;99808.25;;;18.44;97.46
82474;BME280;72350;53.232;6.556;2023-10-13T11:57:15;99826.34;;;18.41;97.84
82474;BME280;72350;53.232;6.556;2023-10-13T11:59:46;99816.09;;;18.25;98.35
82474;BME280;72350;53.232;6.556;2023-10-13T12:02:23;99811.72;;;18.29;98.87
82474;BME280;72350;53.232;6.556;2023-10-13T12:05:08;99825.88;;;18.27;99.48
82474;BME280;72350;53.232;6.556;2023-10-13T12:07:44;99816.34;;;18.23;99.74
82474;BME280;72350;53.232;6.556;2023-10-13T12:10:16;99813.56;;;18.23;100.00
82474;BME280;72350;53.232;6.556;2023-10-13T12:13:01;99818.97;;;18.30;99.97
82474;BME280;72350;53.232;6.556;2023-10-13T12:15:35;99807.34;;;18.38;100.00
82474;BME280;72350;53.232;6.556;2023-10-13T12:18:18;99805.16;;;18.40;99.82
82474;BME280;72350;53.232;6.556;2023-10-13T12:20:46;99796.28;;;18.43;99.40
82474;BME280;72350;53.232;6.556;2023-10-13T12:23:16;99801.31;;;18.46;99.43
82474;BME280;72350;53.232;6.556;2023-10-13T12:25:46;99798.81;;;18.45;98.36
82474;BME280;72350;53.232;6.556;2023-10-13T12:28:29;99793.38;;;18.55;97.68
82474;BME280;72350;53.232;6.556;2023-10-13T12:31:04;99805.34;;;18.55;97.01
82474;BME280;72350;53.232;6.556;2023-10-13T12:33:35;99803.41;;;18.56;97.17
82474;BME280;72350;53.232;6.556;2023-10-13T12:36:07;99807.25;;;18.50;96.59
82474;BME280;72350;53.232;6.556;2023-10-13T12:38:41;99799.91;;;18.44;96.54
82474;BME280;72350;53.232;6.556;2023-10-13T12:41:38;99803.28;;;18.46;95.67
82474;BME280;72350;53.232;6.556;2023-10-13T12:44:25;99821.38;;;18.43;96.32
82474;BME280;72350;53.232;6.556;2023-10-13T12:47:12;99803.13;;;18.36;96.72
82474;BME280;72350;53.232;6.556;2023-10-13T12:49:58;99797.50;;;18.30;97.57
82474;BME280;72350;53.232;6.556;2023-10-13T12:52:34;99796.91;;;18.28;98.10
82474;BME280;72350;53.232;6.556;2023-10-13T12:55:03;99786.78;;;18.22;98.44
82474;BME280;72350;53.232;6.556;2023-10-13T12:57:36;99795.75;;;18.24;97.54
82474;BME280;72350;53.232;6.556;2023-10-13T13:00:12;99793.13;;;18.18;97.32
82474;BME280;72350;53.232;6.556;2023-10-13T13:03:00;99783.88;;;18.12;97.64
82474;BME280;72350;53.232;6.556;2023-10-13T13:05:37;99794.94;;;18.07;98.39
82474;BME280;72350;53.232;6.556;2023-10-13T13:08:11;99791.25;;;18.01;99.05
82474;BME280;72350;53.232;6.556;2023-10-13T13:10:49;99802.38;;;18.01;99.90
82474;BME280;72350;53.232;6.556;2023-10-13T13:13:18;99803.91;;;17.92;100.00
82474;BME280;72350;53.232;6.556;2023-10-13T13:15:53;99780.28;;;17.78;100.00
82474;BME280;72350;53.232;6.556;2023-10-13T13:18:21;99798.56;;;17.74;100.00
82474;BME280;72350;53.232;6.556;2023-10-13T13:20:49;99773.69;;;17.67;100.00
82474;BME280;72350;53.232;6.556;2023-10-13T13:23:21;99754.53;;;17.71;100.00
82474;BME280;72350;53.232;6.556;2023-10-13T13:25:52;99754.97;;;17.62;100.00
82474;BME280;72350;53.232;6.556;2023-10-13T13:28:20;99755.13;;;17.56;100.00
82474;BME280;72350;53.232;6.556;2023-10-13T13:30:52;99754.38;;;17.60;100.00
82474;BME280;72350;53.232;6.556;2023-10-13T13:33:21;99767.47;;;17.60;100.00
82474;BME280;72350;53.232;6.556;2023-10-13T13:35:55;99756.00;;;17.56;100.00